Red Bank, Tennessee
Current Conditions -  °F | °C
As of 6:53 AM on Friday 21 Nov 2014 (Local Time) from KCHA Reporting Station
Scattered Clouds Scattered Clouds  
Wind Chill: 31°   Ceiling: Unl
Heat Index: 31°   Visibility: 10mi
Dew Point: 28°   Wind: 0mph
Humidity: 89%   Direction: NA
Pressure: 30.39"   Gusts: NA
Location:  35.11°N, 85.3°W
Report Text: KCHA 211153Z 00000KT 10SM SCT050 M01/M02 A3039 RMK AO2 SLP294 T10061022 10011 21011 53019
Loading
Personal Weather Stations






























Interactive Weather Map New forecast layout! Learn more

10-Day Weather Forecast

Advertisements
Track Severe Weather on mobile